sensor_id;sensor_type;location;lat;lon;timestamp;P1;durP1;ratioP1;P2;durP2;ratioP2
17153;SDS011;8692;52.164;7.558;2023-05-24T00:00:06;10.50;;;2.67;;
17153;SDS011;8692;52.164;7.558;2023-05-24T00:02:38;8.80;;;2.50;;
17153;SDS011;8692;52.164;7.558;2023-05-24T00:05:08;8.13;;;2.80;;
17153;SDS011;8692;52.164;7.558;2023-05-24T00:07:37;17.80;;;3.20;;
17153;SDS011;8692;52.164;7.558;2023-05-24T00:10:05;8.50;;;2.63;;
17153;SDS011;8692;52.164;7.558;2023-05-24T00:12:34;9.60;;;2.83;;
17153;SDS011;8692;52.164;7.558;2023-05-24T00:15:05;12.83;;;3.30;;
17153;SDS011;8692;52.164;7.558;2023-05-24T00:17:33;12.13;;;2.80;;
17153;SDS011;8692;52.164;7.558;2023-05-24T00:20:09;10.57;;;2.83;;
17153;SDS011;8692;52.164;7.558;2023-05-24T00:22:40;9.13;;;2.77;;
17153;SDS011;8692;52.164;7.558;2023-05-24T00:25:08;11.33;;;3.00;;
17153;SDS011;8692;52.164;7.558;2023-05-24T00:27:38;11.80;;;2.83;;
17153;SDS011;8692;52.164;7.558;2023-05-24T00:30:08;7.93;;;2.90;;
17153;SDS011;8692;52.164;7.558;2023-05-24T00:32:39;13.10;;;3.33;;
17153;SDS011;8692;52.164;7.558;2023-05-24T00:35:08;9.37;;;2.60;;
17153;SDS011;8692;52.164;7.558;2023-05-24T00:37:36;5.20;;;2.37;;
17153;SDS011;8692;52.164;7.558;2023-05-24T00:40:07;10.57;;;3.97;;
17153;SDS011;8692;52.164;7.558;2023-05-24T00:42:36;10.63;;;3.20;;
17153;SDS011;8692;52.164;7.558;2023-05-24T00:45:09;9.50;;;3.10;;
17153;SDS011;8692;52.164;7.558;2023-05-24T00:47:37;8.97;;;2.93;;
17153;SDS011;8692;52.164;7.558;2023-05-24T00:50:08;9.13;;;2.87;;
17153;SDS011;8692;52.164;7.558;2023-05-24T00:52:39;10.43;;;2.90;;
17153;SDS011;8692;52.164;7.558;2023-05-24T00:55:10;11.93;;;2.60;;
17153;SDS011;8692;52.164;7.558;2023-05-24T00:57:38;7.77;;;2.50;;
17153;SDS011;8692;52.164;7.558;2023-05-24T01:00:11;11.33;;;2.70;;
17153;SDS011;8692;52.164;7.558;2023-05-24T01:02:41;10.67;;;2.80;;
17153;SDS011;8692;52.164;7.558;2023-05-24T01:05:09;9.00;;;3.17;;
17153;SDS011;8692;52.164;7.558;2023-05-24T01:07:44;10.50;;;3.27;;
17153;SDS011;8692;52.164;7.558;2023-05-24T01:10:24;13.30;;;3.20;;
17153;SDS011;8692;52.164;7.558;2023-05-24T01:13:03;13.33;;;3.10;;
17153;SDS011;8692;52.164;7.558;2023-05-24T01:15:49;12.00;;;2.90;;
17153;SDS011;8692;52.164;7.558;2023-05-24T01:18:23;12.37;;;2.93;;
17153;SDS011;8692;52.164;7.558;2023-05-24T01:20:58;17.77;;;3.10;;
17153;SDS011;8692;52.164;7.558;2023-05-24T01:23:38;8.90;;;2.70;;
17153;SDS011;8692;52.164;7.558;2023-05-24T01:26:24;14.17;;;3.87;;
17153;SDS011;8692;52.164;7.558;2023-05-24T01:29:08;9.03;;;3.47;;
17153;SDS011;8692;52.164;7.558;2023-05-24T01:31:37;11.80;;;3.33;;
17153;SDS011;8692;52.164;7.558;2023-05-24T01:34:05;9.50;;;3.33;;
17153;SDS011;8692;52.164;7.558;2023-05-24T01:36:36;9.83;;;3.50;;
17153;SDS011;8692;52.164;7.558;2023-05-24T01:39:07;13.63;;;3.47;;
17153;SDS011;8692;52.164;7.558;2023-05-24T01:41:38;7.97;;;2.30;;
17153;SDS011;8692;52.164;7.558;2023-05-24T01:44:14;9.23;;;2.60;;
17153;SDS011;8692;52.164;7.558;2023-05-24T01:47:00;6.27;;;2.47;;
17153;SDS011;8692;52.164;7.558;2023-05-24T01:49:33;9.83;;;2.87;;
17153;SDS011;8692;52.164;7.558;2023-05-24T01:52:10;9.47;;;2.83;;
17153;SDS011;8692;52.164;7.558;2023-05-24T01:54:46;8.80;;;2.93;;
17153;SDS011;8692;52.164;7.558;2023-05-24T01:57:18;7.53;;;2.63;;
17153;SDS011;8692;52.164;7.558;2023-05-24T01:59:49;5.80;;;2.80;;
17153;SDS011;8692;52.164;7.558;2023-05-24T02:02:17;7.97;;;2.57;;
17153;SDS011;8692;52.164;7.558;2023-05-24T02:04:46;6.73;;;2.90;;
17153;SDS011;8692;52.164;7.558;2023-05-24T02:07:17;12.03;;;3.23;;
17153;SDS011;8692;52.164;7.558;2023-05-24T02:09:45;9.70;;;2.80;;
17153;SDS011;8692;52.164;7.558;2023-05-24T02:12:15;7.13;;;2.53;;
17153;SDS011;8692;52.164;7.558;2023-05-24T02:14:43;6.83;;;2.67;;
17153;SDS011;8692;52.164;7.558;2023-05-24T02:17:16;8.17;;;3.07;;
17153;SDS011;8692;52.164;7.558;2023-05-24T02:19:44;7.93;;;3.30;;
17153;SDS011;8692;52.164;7.558;2023-05-24T02:22:13;6.80;;;2.40;;
17153;SDS011;8692;52.164;7.558;2023-05-24T02:24:44;5.57;;;2.70;;
17153;SDS011;8692;52.164;7.558;2023-05-24T02:27:13;14.37;;;3.40;;
17153;SDS011;8692;52.164;7.558;2023-05-24T02:29:44;9.87;;;2.77;;
17153;SDS011;8692;52.164;7.558;2023-05-24T02:32:13;7.17;;;2.73;;
17153;SDS011;8692;52.164;7.558;2023-05-24T02:34:42;10.17;;;3.07;;
17153;SDS011;8692;52.164;7.558;2023-05-24T02:37:13;12.80;;;3.17;;
17153;SDS011;8692;52.164;7.558;2023-05-24T02:39:41;7.03;;;2.70;;
17153;SDS011;8692;52.164;7.558;2023-05-24T02:42:10;7.20;;;3.00;;
17153;SDS011;8692;52.164;7.558;2023-05-24T02:44:38;12.80;;;3.47;;
17153;SDS011;8692;52.164;7.558;2023-05-24T02:47:08;15.40;;;3.87;;
17153;SDS011;8692;52.164;7.558;2023-05-24T02:49:36;10.20;;;3.17;;
17153;SDS011;8692;52.164;7.558;2023-05-24T02:52:05;7.97;;;2.83;;
17153;SDS011;8692;52.164;7.558;2023-05-24T02:54:37;11.57;;;3.70;;
17153;SDS011;8692;52.164;7.558;2023-05-24T02:57:05;11.33;;;3.80;;
17153;SDS011;8692;52.164;7.558;2023-05-24T02:59:33;8.17;;;3.20;;
17153;SDS011;8692;52.164;7.558;2023-05-24T03:02:01;18.50;;;3.70;;
17153;SDS011;8692;52.164;7.558;2023-05-24T03:04:30;10.57;;;4.57;;
17153;SDS011;8692;52.164;7.558;2023-05-24T03:07:01;19.67;;;4.10;;
17153;SDS011;8692;52.164;7.558;2023-05-24T03:09:31;12.63;;;3.40;;
17153;SDS011;8692;52.164;7.558;2023-05-24T03:12:03;14.40;;;4.00;;
17153;SDS011;8692;52.164;7.558;2023-05-24T03:14:34;12.53;;;3.47;;
17153;SDS011;8692;52.164;7.558;2023-05-24T03:17:02;9.27;;;3.63;;
17153;SDS011;8692;52.164;7.558;2023-05-24T03:19:32;8.03;;;3.43;;
17153;SDS011;8692;52.164;7.558;2023-05-24T03:22:00;8.43;;;2.93;;
17153;SDS011;8692;52.164;7.558;2023-05-24T03:24:28;9.23;;;2.97;;
17153;SDS011;8692;52.164;7.558;2023-05-24T03:27:00;12.23;;;3.73;;
17153;SDS011;8692;52.164;7.558;2023-05-24T03:29:29;6.93;;;2.80;;
17153;SDS011;8692;52.164;7.558;2023-05-24T03:32:00;9.50;;;3.37;;
17153;SDS011;8692;52.164;7.558;2023-05-24T03:34:28;9.07;;;2.83;;
17153;SDS011;8692;52.164;7.558;2023-05-24T03:36:56;9.97;;;4.37;;
17153;SDS011;8692;52.164;7.558;2023-05-24T03:39:25;11.87;;;4.20;;
17153;SDS011;8692;52.164;7.558;2023-05-24T03:42:09;11.20;;;3.73;;
17153;SDS011;8692;52.164;7.558;2023-05-24T03:44:38;15.17;;;3.90;;
17153;SDS011;8692;52.164;7.558;2023-05-24T03:47:08;10.43;;;3.53;;
17153;SDS011;8692;52.164;7.558;2023-05-24T03:49:36;9.27;;;3.30;;
17153;SDS011;8692;52.164;7.558;2023-05-24T03:52:07;10.47;;;2.90;;
17153;SDS011;8692;52.164;7.558;2023-05-24T03:54:38;10.93;;;4.10;;
17153;SDS011;8692;52.164;7.558;2023-05-24T03:57:10;15.57;;;4.17;;
17153;SDS011;8692;52.164;7.558;2023-05-24T03:59:41;13.10;;;3.57;;
17153;SDS011;8692;52.164;7.558;2023-05-24T04:02:09;12.60;;;3.73;;
17153;SDS011;8692;52.164;7.558;2023-05-24T04:04:38;8.77;;;3.10;;
17153;SDS011;8692;52.164;7.558;2023-05-24T04:07:06;11.47;;;3.63;;
17153;SDS011;8692;52.164;7.558;2023-05-24T04:09:44;12.33;;;4.37;;
17153;SDS011;8692;52.164;7.558;2023-05-24T04:12:16;20.07;;;3.93;;
17153;SDS011;8692;52.164;7.558;2023-05-24T04:14:44;17.63;;;4.50;;
17153;SDS011;8692;52.164;7.558;2023-05-24T04:17:13;10.93;;;3.27;;
17153;SDS011;8692;52.164;7.558;2023-05-24T04:19:42;9.10;;;3.60;;
17153;SDS011;8692;52.164;7.558;2023-05-24T04:22:12;13.37;;;4.43;;
17153;SDS011;8692;52.164;7.558;2023-05-24T04:24:40;18.43;;;4.73;;
17153;SDS011;8692;52.164;7.558;2023-05-24T04:27:08;16.07;;;4.50;;
17153;SDS011;8692;52.164;7.558;2023-05-24T04:29:40;8.37;;;3.40;;
17153;SDS011;8692;52.164;7.558;2023-05-24T04:32:15;18.30;;;4.87;;
17153;SDS011;8692;52.164;7.558;2023-05-24T04:34:44;12.83;;;4.40;;
17153;SDS011;8692;52.164;7.558;2023-05-24T04:37:12;8.20;;;3.63;;
17153;SDS011;8692;52.164;7.558;2023-05-24T04:39:44;13.07;;;4.67;;
17153;SDS011;8692;52.164;7.558;2023-05-24T04:42:14;16.50;;;3.87;;
17153;SDS011;8692;52.164;7.558;2023-05-24T04:44:47;18.77;;;4.90;;
17153;SDS011;8692;52.164;7.558;2023-05-24T04:47:17;20.20;;;4.30;;
17153;SDS011;8692;52.164;7.558;2023-05-24T04:49:45;13.23;;;3.80;;
17153;SDS011;8692;52.164;7.558;2023-05-24T04:52:17;12.47;;;3.80;;
17153;SDS011;8692;52.164;7.558;2023-05-24T04:54:48;16.50;;;5.27;;
17153;SDS011;8692;52.164;7.558;2023-05-24T04:57:19;16.83;;;4.03;;
17153;SDS011;8692;52.164;7.558;2023-05-24T04:59:49;11.90;;;3.87;;
17153;SDS011;8692;52.164;7.558;2023-05-24T05:02:17;11.57;;;3.50;;
17153;SDS011;8692;52.164;7.558;2023-05-24T05:04:45;12.30;;;3.93;;
17153;SDS011;8692;52.164;7.558;2023-05-24T05:07:16;15.77;;;4.40;;
17153;SDS011;8692;52.164;7.558;2023-05-24T05:09:47;17.20;;;3.77;;
17153;SDS011;8692;52.164;7.558;2023-05-24T05:12:15;16.07;;;4.73;;
17153;SDS011;8692;52.164;7.558;2023-05-24T05:14:44;11.17;;;4.00;;
17153;SDS011;8692;52.164;7.558;2023-05-24T05:17:16;12.00;;;4.23;;
17153;SDS011;8692;52.164;7.558;2023-05-24T05:19:45;15.32;;;3.75;;
17153;SDS011;8692;52.164;7.558;2023-05-24T05:22:13;21.47;;;5.47;;
17153;SDS011;8692;52.164;7.558;2023-05-24T05:24:45;15.67;;;4.07;;
17153;SDS011;8692;52.164;7.558;2023-05-24T05:27:13;13.30;;;4.22;;
17153;SDS011;8692;52.164;7.558;2023-05-24T05:29:41;12.27;;;4.90;;
17153;SDS011;8692;52.164;7.558;2023-05-24T05:32:12;11.80;;;4.50;;
17153;SDS011;8692;52.164;7.558;2023-05-24T05:34:43;11.87;;;3.60;;
17153;SDS011;8692;52.164;7.558;2023-05-24T05:37:12;16.97;;;4.57;;
17153;SDS011;8692;52.164;7.558;2023-05-24T05:39:43;13.53;;;4.17;;
17153;SDS011;8692;52.164;7.558;2023-05-24T05:42:11;14.87;;;4.80;;
17153;SDS011;8692;52.164;7.558;2023-05-24T05:44:42;12.13;;;4.23;;
17153;SDS011;8692;52.164;7.558;2023-05-24T05:47:10;18.83;;;4.30;;
17153;SDS011;8692;52.164;7.558;2023-05-24T05:49:38;13.17;;;3.80;;
17153;SDS011;8692;52.164;7.558;2023-05-24T05:52:08;19.37;;;4.67;;
17153;SDS011;8692;52.164;7.558;2023-05-24T05:54:37;18.33;;;5.60;;
17153;SDS011;8692;52.164;7.558;2023-05-24T05:57:05;13.83;;;4.33;;
17153;SDS011;8692;52.164;7.558;2023-05-24T05:59:37;17.50;;;4.07;;
17153;SDS011;8692;52.164;7.558;2023-05-24T06:02:05;12.50;;;3.73;;
17153;SDS011;8692;52.164;7.558;2023-05-24T06:04:34;15.97;;;4.67;;
17153;SDS011;8692;52.164;7.558;2023-05-24T06:07:02;15.53;;;4.57;;
17153;SDS011;8692;52.164;7.558;2023-05-24T06:09:31;14.50;;;4.07;;
17153;SDS011;8692;52.164;7.558;2023-05-24T06:12:00;15.73;;;3.20;;
17153;SDS011;8692;52.164;7.558;2023-05-24T06:14:28;14.20;;;3.83;;
17153;SDS011;8692;52.164;7.558;2023-05-24T06:16:57;13.83;;;4.70;;
17153;SDS011;8692;52.164;7.558;2023-05-24T06:19:25;14.30;;;4.37;;
17153;SDS011;8692;52.164;7.558;2023-05-24T06:21:56;15.17;;;4.47;;
17153;SDS011;8692;52.164;7.558;2023-05-24T06:24:27;14.53;;;4.60;;
17153;SDS011;8692;52.164;7.558;2023-05-24T06:26:57;17.37;;;3.90;;
17153;SDS011;8692;52.164;7.558;2023-05-24T06:29:25;14.73;;;3.37;;
17153;SDS011;8692;52.164;7.558;2023-05-24T06:31:53;13.53;;;4.80;;
17153;SDS011;8692;52.164;7.558;2023-05-24T06:34:24;15.00;;;3.93;;
17153;SDS011;8692;52.164;7.558;2023-05-24T06:36:54;8.53;;;3.80;;
17153;SDS011;8692;52.164;7.558;2023-05-24T06:39:23;13.57;;;4.17;;
17153;SDS011;8692;52.164;7.558;2023-05-24T06:41:52;16.17;;;4.07;;
17153;SDS011;8692;52.164;7.558;2023-05-24T06:44:24;17.80;;;4.57;;
17153;SDS011;8692;52.164;7.558;2023-05-24T06:46:57;12.97;;;4.20;;
17153;SDS011;8692;52.164;7.558;2023-05-24T06:49:25;19.13;;;5.10;;
17153;SDS011;8692;52.164;7.558;2023-05-24T06:51:54;15.90;;;4.33;;
17153;SDS011;8692;52.164;7.558;2023-05-24T06:54:22;14.00;;;4.53;;
17153;SDS011;8692;52.164;7.558;2023-05-24T06:56:50;20.03;;;4.07;;
17153;SDS011;8692;52.164;7.558;2023-05-24T06:59:21;16.30;;;4.90;;
17153;SDS011;8692;52.164;7.558;2023-05-24T07:01:50;16.97;;;4.33;;
17153;SDS011;8692;52.164;7.558;2023-05-24T07:04:25;19.67;;;4.33;;
17153;SDS011;8692;52.164;7.558;2023-05-24T07:06:56;17.87;;;4.03;;
17153;SDS011;8692;52.164;7.558;2023-05-24T07:09:27;20.20;;;4.50;;
17153;SDS011;8692;52.164;7.558;2023-05-24T07:11:55;14.83;;;4.50;;
17153;SDS011;8692;52.164;7.558;2023-05-24T07:14:26;12.30;;;3.47;;
17153;SDS011;8692;52.164;7.558;2023-05-24T07:16:58;16.90;;;4.97;;
17153;SDS011;8692;52.164;7.558;2023-05-24T07:19:29;12.17;;;4.30;;
17153;SDS011;8692;52.164;7.558;2023-05-24T07:21:58;15.93;;;4.90;;
17153;SDS011;8692;52.164;7.558;2023-05-24T07:24:27;18.87;;;5.20;;
17153;SDS011;8692;52.164;7.558;2023-05-24T07:26:57;17.83;;;5.07;;
17153;SDS011;8692;52.164;7.558;2023-05-24T07:29:25;15.03;;;4.50;;
17153;SDS011;8692;52.164;7.558;2023-05-24T07:31:54;16.07;;;4.40;;
17153;SDS011;8692;52.164;7.558;2023-05-24T07:34:27;12.80;;;4.03;;
17153;SDS011;8692;52.164;7.558;2023-05-24T07:36:56;15.93;;;4.53;;
17153;SDS011;8692;52.164;7.558;2023-05-24T07:39:26;12.37;;;4.03;;
17153;SDS011;8692;52.164;7.558;2023-05-24T07:41:54;22.17;;;6.37;;
17153;SDS011;8692;52.164;7.558;2023-05-24T07:44:22;14.50;;;4.70;;
17153;SDS011;8692;52.164;7.558;2023-05-24T07:46:51;18.57;;;4.47;;
17153;SDS011;8692;52.164;7.558;2023-05-24T07:49:21;11.57;;;4.40;;
17153;SDS011;8692;52.164;7.558;2023-05-24T07:51:51;20.67;;;4.77;;
17153;SDS011;8692;52.164;7.558;2023-05-24T07:54:24;13.37;;;4.47;;
17153;SDS011;8692;52.164;7.558;2023-05-24T07:56:52;18.20;;;4.33;;
17153;SDS011;8692;52.164;7.558;2023-05-24T07:59:21;14.53;;;4.63;;
17153;SDS011;8692;52.164;7.558;2023-05-24T08:01:49;13.27;;;4.73;;
17153;SDS011;8692;52.164;7.558;2023-05-24T08:04:17;17.10;;;4.77;;
17153;SDS011;8692;52.164;7.558;2023-05-24T08:06:46;17.30;;;4.33;;
17153;SDS011;8692;52.164;7.558;2023-05-24T08:09:18;12.60;;;4.93;;
17153;SDS011;8692;52.164;7.558;2023-05-24T08:11:46;16.27;;;4.27;;
17153;SDS011;8692;52.164;7.558;2023-05-24T08:14:14;11.17;;;4.37;;
17153;SDS011;8692;52.164;7.558;2023-05-24T08:16:45;17.47;;;4.60;;
17153;SDS011;8692;52.164;7.558;2023-05-24T08:19:16;13.20;;;4.10;;
17153;SDS011;8692;52.164;7.558;2023-05-24T08:21:47;11.13;;;4.03;;
17153;SDS011;8692;52.164;7.558;2023-05-24T08:24:15;18.23;;;4.83;;
17153;SDS011;8692;52.164;7.558;2023-05-24T08:26:44;18.20;;;4.93;;
17153;SDS011;8692;52.164;7.558;2023-05-24T08:29:13;14.37;;;4.30;;
17153;SDS011;8692;52.164;7.558;2023-05-24T08:31:42;14.47;;;4.30;;
17153;SDS011;8692;52.164;7.558;2023-05-24T08:34:13;16.00;;;4.40;;
17153;SDS011;8692;52.164;7.558;2023-05-24T08:36:41;11.70;;;4.10;;
17153;SDS011;8692;52.164;7.558;2023-05-24T08:39:11;15.77;;;4.40;;
17153;SDS011;8692;52.164;7.558;2023-05-24T08:41:39;17.10;;;4.53;;
17153;SDS011;8692;52.164;7.558;2023-05-24T08:44:09;15.77;;;4.50;;
17153;SDS011;8692;52.164;7.558;2023-05-24T08:46:38;8.60;;;3.47;;
17153;SDS011;8692;52.164;7.558;2023-05-24T08:49:09;15.50;;;4.17;;
17153;SDS011;8692;52.164;7.558;2023-05-24T08:51:40;17.20;;;4.40;;
17153;SDS011;8692;52.164;7.558;2023-05-24T08:54:09;17.70;;;4.77;;
17153;SDS011;8692;52.164;7.558;2023-05-24T08:56:39;11.67;;;4.23;;
17153;SDS011;8692;52.164;7.558;2023-05-24T08:59:09;12.20;;;3.63;;
17153;SDS011;8692;52.164;7.558;2023-05-24T09:01:39;12.33;;;3.60;;
17153;SDS011;8692;52.164;7.558;2023-05-24T09:04:10;15.20;;;4.20;;
17153;SDS011;8692;52.164;7.558;2023-05-24T09:06:38;13.27;;;2.93;;
17153;SDS011;8692;52.164;7.558;2023-05-24T09:09:09;11.50;;;3.27;;
17153;SDS011;8692;52.164;7.558;2023-05-24T09:11:38;16.23;;;4.37;;
17153;SDS011;8692;52.164;7.558;2023-05-24T09:14:09;18.17;;;4.43;;
17153;SDS011;8692;52.164;7.558;2023-05-24T09:16:38;12.40;;;3.37;;
17153;SDS011;8692;52.164;7.558;2023-05-24T09:19:10;14.00;;;4.17;;
17153;SDS011;8692;52.164;7.558;2023-05-24T09:21:41;12.77;;;3.60;;
17153;SDS011;8692;52.164;7.558;2023-05-24T09:24:10;9.37;;;3.70;;
17153;SDS011;8692;52.164;7.558;2023-05-24T09:26:38;10.17;;;3.73;;
17153;SDS011;8692;52.164;7.558;2023-05-24T09:29:06;15.03;;;4.37;;
17153;SDS011;8692;52.164;7.558;2023-05-24T09:31:39;15.30;;;4.33;;
17153;SDS011;8692;52.164;7.558;2023-05-24T09:34:11;18.47;;;5.70;;
17153;SDS011;8692;52.164;7.558;2023-05-24T09:36:45;11.27;;;3.87;;
17153;SDS011;8692;52.164;7.558;2023-05-24T09:39:16;9.70;;;3.90;;
17153;SDS011;8692;52.164;7.558;2023-05-24T09:41:50;10.57;;;3.83;;
17153;SDS011;8692;52.164;7.558;2023-05-24T09:44:23;17.43;;;3.60;;
17153;SDS011;8692;52.164;7.558;2023-05-24T09:46:53;14.27;;;4.13;;
17153;SDS011;8692;52.164;7.558;2023-05-24T09:49:30;10.57;;;3.97;;
17153;SDS011;8692;52.164;7.558;2023-05-24T09:51:59;10.37;;;3.37;;
17153;SDS011;8692;52.164;7.558;2023-05-24T09:54:30;10.23;;;3.50;;
17153;SDS011;8692;52.164;7.558;2023-05-24T09:56:59;10.20;;;3.50;;
17153;SDS011;8692;52.164;7.558;2023-05-24T09:59:31;10.53;;;3.33;;
17153;SDS011;8692;52.164;7.558;2023-05-24T10:02:07;10.47;;;3.63;;
17153;SDS011;8692;52.164;7.558;2023-05-24T10:04:37;14.30;;;3.53;;
17153;SDS011;8692;52.164;7.558;2023-05-24T10:07:05;10.60;;;3.70;;
17153;SDS011;8692;52.164;7.558;2023-05-24T10:09:36;11.30;;;4.07;;
17153;SDS011;8692;52.164;7.558;2023-05-24T10:12:05;10.33;;;3.60;;
17153;SDS011;8692;52.164;7.558;2023-05-24T10:14:37;12.93;;;3.53;;
17153;SDS011;8692;52.164;7.558;2023-05-24T10:17:06;12.97;;;3.93;;
17153;SDS011;8692;52.164;7.558;2023-05-24T10:19:38;8.03;;;3.67;;
17153;SDS011;8692;52.164;7.558;2023-05-24T10:22:07;11.60;;;3.07;;
17153;SDS011;8692;52.164;7.558;2023-05-24T10:24:37;11.80;;;3.97;;
17153;SDS011;8692;52.164;7.558;2023-05-24T10:27:08;6.67;;;2.87;;
17153;SDS011;8692;52.164;7.558;2023-05-24T10:29:40;10.40;;;3.67;;
17153;SDS011;8692;52.164;7.558;2023-05-24T10:32:17;10.27;;;3.33;;
17153;SDS011;8692;52.164;7.558;2023-05-24T10:34:50;8.90;;;3.53;;
17153;SDS011;8692;52.164;7.558;2023-05-24T10:37:19;11.40;;;3.60;;
17153;SDS011;8692;52.164;7.558;2023-05-24T10:39:50;9.40;;;3.20;;
17153;SDS011;8692;52.164;7.558;2023-05-24T10:42:21;9.47;;;3.10;;
17153;SDS011;8692;52.164;7.558;2023-05-24T10:44:49;9.93;;;3.10;;
17153;SDS011;8692;52.164;7.558;2023-05-24T10:47:21;11.03;;;3.90;;
17153;SDS011;8692;52.164;7.558;2023-05-24T10:49:56;10.37;;;3.80;;
17153;SDS011;8692;52.164;7.558;2023-05-24T10:52:33;9.17;;;3.33;;
17153;SDS011;8692;52.164;7.558;2023-05-24T10:55:02;12.27;;;3.17;;
17153;SDS011;8692;52.164;7.558;2023-05-24T10:57:33;10.60;;;3.63;;
17153;SDS011;8692;52.164;7.558;2023-05-24T11:03:11;11.30;;;4.47;;
17153;SDS011;8692;52.164;7.558;2023-05-24T11:05:49;8.23;;;3.07;;
17153;SDS011;8692;52.164;7.558;2023-05-24T11:08:21;15.97;;;4.63;;
17153;SDS011;8692;52.164;7.558;2023-05-24T11:11:00;12.50;;;3.80;;
17153;SDS011;8692;52.164;7.558;2023-05-24T11:13:48;15.27;;;4.10;;
17153;SDS011;8692;52.164;7.558;2023-05-24T11:16:31;14.17;;;3.90;;
17153;SDS011;8692;52.164;7.558;2023-05-24T11:19:04;13.15;;;4.03;;
17153;SDS011;8692;52.164;7.558;2023-05-24T11:21:42;11.10;;;4.03;;
17153;SDS011;8692;52.164;7.558;2023-05-24T11:24:14;15.10;;;3.80;;
17153;SDS011;8692;52.164;7.558;2023-05-24T11:26:43;13.60;;;3.90;;
17153;SDS011;8692;52.164;7.558;2023-05-24T11:29:12;8.53;;;3.80;;
17153;SDS011;8692;52.164;7.558;2023-05-24T11:31:46;11.13;;;3.23;;
17153;SDS011;8692;52.164;7.558;2023-05-24T11:34:17;15.43;;;3.93;;
17153;SDS011;8692;52.164;7.558;2023-05-24T11:36:48;18.03;;;4.13;;
17153;SDS011;8692;52.164;7.558;2023-05-24T11:39:18;11.47;;;3.40;;
17153;SDS011;8692;52.164;7.558;2023-05-24T11:41:46;11.50;;;3.77;;
17153;SDS011;8692;52.164;7.558;2023-05-24T11:44:15;13.43;;;4.33;;
17153;SDS011;8692;52.164;7.558;2023-05-24T11:46:45;10.70;;;3.20;;
17153;SDS011;8692;52.164;7.558;2023-05-24T11:49:13;12.13;;;3.83;;
17153;SDS011;8692;52.164;7.558;2023-05-24T11:51:44;8.73;;;3.00;;
17153;SDS011;8692;52.164;7.558;2023-05-24T11:54:17;10.67;;;3.03;;
17153;SDS011;8692;52.164;7.558;2023-05-24T11:56:48;9.10;;;3.43;;
17153;SDS011;8692;52.164;7.558;2023-05-24T11:59:21;15.30;;;4.13;;
17153;SDS011;8692;52.164;7.558;2023-05-24T12:01:55;12.53;;;3.17;;
17153;SDS011;8692;52.164;7.558;2023-05-24T12:04:28;15.70;;;3.50;;
17153;SDS011;8692;52.164;7.558;2023-05-24T12:06:59;8.97;;;3.60;;
17153;SDS011;8692;52.164;7.558;2023-05-24T12:09:28;9.10;;;2.80;;
17153;SDS011;8692;52.164;7.558;2023-05-24T12:11:57;11.83;;;3.33;;
17153;SDS011;8692;52.164;7.558;2023-05-24T12:14:26;13.63;;;3.60;;
17153;SDS011;8692;52.164;7.558;2023-05-24T12:16:56;8.83;;;3.27;;
17153;SDS011;8692;52.164;7.558;2023-05-24T12:19:28;11.83;;;4.30;;
17153;SDS011;8692;52.164;7.558;2023-05-24T12:22:02;9.23;;;3.17;;
17153;SDS011;8692;52.164;7.558;2023-05-24T12:24:35;11.97;;;3.20;;
17153;SDS011;8692;52.164;7.558;2023-05-24T12:27:06;11.73;;;3.20;;
17153;SDS011;8692;52.164;7.558;2023-05-24T12:29:35;10.43;;;3.00;;
17153;SDS011;8692;52.164;7.558;2023-05-24T12:32:08;8.53;;;2.83;;
17153;SDS011;8692;52.164;7.558;2023-05-24T12:34:43;9.03;;;3.43;;
17153;SDS011;8692;52.164;7.558;2023-05-24T12:37:16;9.30;;;2.93;;
17153;SDS011;8692;52.164;7.558;2023-05-24T12:39:47;11.60;;;3.07;;
17153;SDS011;8692;52.164;7.558;2023-05-24T12:42:19;13.70;;;3.50;;
17153;SDS011;8692;52.164;7.558;2023-05-24T12:44:49;9.40;;;3.07;;
17153;SDS011;8692;52.164;7.558;2023-05-24T12:47:19;13.00;;;2.90;;
17153;SDS011;8692;52.164;7.558;2023-05-24T12:49:48;10.93;;;3.20;;
17153;SDS011;8692;52.164;7.558;2023-05-24T12:52:20;11.43;;;3.23;;
17153;SDS011;8692;52.164;7.558;2023-05-24T12:54:50;7.50;;;2.30;;
17153;SDS011;8692;52.164;7.558;2023-05-24T12:57:18;10.43;;;3.43;;
17153;SDS011;8692;52.164;7.558;2023-05-24T12:59:46;8.87;;;2.63;;
17153;SDS011;8692;52.164;7.558;2023-05-24T13:02:15;8.37;;;3.07;;
17153;SDS011;8692;52.164;7.558;2023-05-24T13:04:46;12.07;;;3.30;;
17153;SDS011;8692;52.164;7.558;2023-05-24T13:07:14;10.07;;;3.47;;
17153;SDS011;8692;52.164;7.558;2023-05-24T13:09:46;10.20;;;3.33;;
17153;SDS011;8692;52.164;7.558;2023-05-24T13:12:14;6.33;;;3.10;;
17153;SDS011;8692;52.164;7.558;2023-05-24T13:14:43;8.47;;;3.20;;
17153;SDS011;8692;52.164;7.558;2023-05-24T13:17:13;5.83;;;2.20;;
17153;SDS011;8692;52.164;7.558;2023-05-24T13:19:43;12.33;;;3.30;;
17153;SDS011;8692;52.164;7.558;2023-05-24T13:22:15;12.30;;;3.43;;
17153;SDS011;8692;52.164;7.558;2023-05-24T13:24:48;9.47;;;3.37;;
17153;SDS011;8692;52.164;7.558;2023-05-24T13:27:25;7.20;;;2.90;;
17153;SDS011;8692;52.164;7.558;2023-05-24T13:29:55;8.77;;;2.63;;
17153;SDS011;8692;52.164;7.558;2023-05-24T13:32:27;7.83;;;3.00;;
17153;SDS011;8692;52.164;7.558;2023-05-24T13:34:57;10.27;;;3.10;;
17153;SDS011;8692;52.164;7.558;2023-05-24T13:37:26;6.53;;;2.70;;
17153;SDS011;8692;52.164;7.558;2023-05-24T13:39:56;8.87;;;3.43;;
17153;SDS011;8692;52.164;7.558;2023-05-24T13:42:24;7.40;;;3.13;;
17153;SDS011;8692;52.164;7.558;2023-05-24T13:44:53;5.30;;;2.43;;
17153;SDS011;8692;52.164;7.558;2023-05-24T13:47:21;10.03;;;2.63;;
17153;SDS011;8692;52.164;7.558;2023-05-24T13:50:04;10.37;;;3.07;;
17153;SDS011;8692;52.164;7.558;2023-05-24T13:52:36;10.63;;;3.50;;
17153;SDS011;8692;52.164;7.558;2023-05-24T13:55:06;8.07;;;3.23;;
17153;SDS011;8692;52.164;7.558;2023-05-24T13:57:36;8.43;;;3.10;;
17153;SDS011;8692;52.164;7.558;2023-05-24T14:00:17;7.13;;;2.87;;
17153;SDS011;8692;52.164;7.558;2023-05-24T14:02:46;9.77;;;2.60;;
17153;SDS011;8692;52.164;7.558;2023-05-24T14:05:15;5.13;;;2.93;;
17153;SDS011;8692;52.164;7.558;2023-05-24T14:07:55;7.37;;;2.97;;
17153;SDS011;8692;52.164;7.558;2023-05-24T14:10:27;8.00;;;2.97;;
17153;SDS011;8692;52.164;7.558;2023-05-24T14:12:57;9.50;;;3.30;;
17153;SDS011;8692;52.164;7.558;2023-05-24T14:15:48;8.90;;;2.90;;
17153;SDS011;8692;52.164;7.558;2023-05-24T14:18:19;7.50;;;2.87;;
17153;SDS011;8692;52.164;7.558;2023-05-24T14:20:47;7.90;;;3.27;;
17153;SDS011;8692;52.164;7.558;2023-05-24T14:23:18;10.97;;;3.40;;
17153;SDS011;8692;52.164;7.558;2023-05-24T14:25:48;10.47;;;3.60;;
17153;SDS011;8692;52.164;7.558;2023-05-24T14:28:19;10.57;;;3.40;;
17153;SDS011;8692;52.164;7.558;2023-05-24T14:30:47;6.83;;;2.87;;
17153;SDS011;8692;52.164;7.558;2023-05-24T14:33:19;8.97;;;2.80;;
17153;SDS011;8692;52.164;7.558;2023-05-24T14:35:48;5.87;;;2.90;;
17153;SDS011;8692;52.164;7.558;2023-05-24T14:38:19;7.40;;;2.50;;
17153;SDS011;8692;52.164;7.558;2023-05-24T14:40:50;8.23;;;2.80;;
17153;SDS011;8692;52.164;7.558;2023-05-24T14:43:19;6.10;;;2.60;;
17153;SDS011;8692;52.164;7.558;2023-05-24T14:45:47;8.40;;;2.60;;
17153;SDS011;8692;52.164;7.558;2023-05-24T14:48:15;7.70;;;2.47;;
17153;SDS011;8692;52.164;7.558;2023-05-24T14:50:43;6.70;;;2.80;;
17153;SDS011;8692;52.164;7.558;2023-05-24T14:53:12;6.13;;;3.03;;
17153;SDS011;8692;52.164;7.558;2023-05-24T14:55:42;7.27;;;2.27;;
17153;SDS011;8692;52.164;7.558;2023-05-24T14:58:14;10.53;;;3.50;;
17153;SDS011;8692;52.164;7.558;2023-05-24T15:00:45;5.57;;;2.20;;
17153;SDS011;8692;52.164;7.558;2023-05-24T15:03:13;9.37;;;2.80;;
17153;SDS011;8692;52.164;7.558;2023-05-24T15:05:44;5.53;;;2.43;;
17153;SDS011;8692;52.164;7.558;2023-05-24T15:08:12;7.13;;;2.27;;
17153;SDS011;8692;52.164;7.558;2023-05-24T15:10:40;7.40;;;2.87;;
17153;SDS011;8692;52.164;7.558;2023-05-24T15:13:14;7.13;;;2.73;;
17153;SDS011;8692;52.164;7.558;2023-05-24T15:15:46;5.87;;;2.30;;